sensor_id;sensor_type;location;lat;lon;timestamp;P1;durP1;ratioP1;P2;durP2;ratioP2
67904;SDS011;54709;43.614;1.576;2023-03-20T00:00:56;2.92;;;1.35;;
67904;SDS011;54709;43.614;1.576;2023-03-20T00:03:23;2.58;;;1.02;;
67904;SDS011;54709;43.614;1.576;2023-03-20T00:05:48;2.72;;;1.10;;
67904;SDS011;54709;43.614;1.576;2023-03-20T00:08:15;2.28;;;1.00;;
67904;SDS011;54709;43.614;1.576;2023-03-20T00:10:41;4.32;;;1.10;;
67904;SDS011;54709;43.614;1.576;2023-03-20T00:13:12;3.78;;;0.90;;
67904;SDS011;54709;43.614;1.576;2023-03-20T00:15:40;3.53;;;1.17;;
67904;SDS011;54709;43.614;1.576;2023-03-20T00:18:19;3.08;;;1.15;;
67904;SDS011;54709;43.614;1.576;2023-03-20T00:20:47;2.92;;;1.08;;
67904;SDS011;54709;43.614;1.576;2023-03-20T00:23:13;5.93;;;1.20;;
67904;SDS011;54709;43.614;1.576;2023-03-20T00:25:39;2.30;;;0.90;;
67904;SDS011;54709;43.614;1.576;2023-03-20T00:29:06;4.32;;;0.95;;
67904;SDS011;54709;43.614;1.576;2023-03-20T00:31:03;1.38;;;0.90;;
67904;SDS011;54709;43.614;1.576;2023-03-20T00:33:30;3.15;;;1.08;;
67904;SDS011;54709;43.614;1.576;2023-03-20T00:35:56;3.33;;;1.00;;
67904;SDS011;54709;43.614;1.576;2023-03-20T00:38:23;3.83;;;0.82;;
67904;SDS011;54709;43.614;1.576;2023-03-20T00:40:48;2.58;;;0.98;;
67904;SDS011;54709;43.614;1.576;2023-03-20T00:43:14;1.95;;;0.80;;
67904;SDS011;54709;43.614;1.576;2023-03-20T00:45:40;3.92;;;1.00;;
67904;SDS011;54709;43.614;1.576;2023-03-20T00:48:07;0.95;;;0.82;;
67904;SDS011;54709;43.614;1.576;2023-03-20T00:50:36;2.83;;;0.90;;
67904;SDS011;54709;43.614;1.576;2023-03-20T00:53:01;2.75;;;0.90;;
67904;SDS011;54709;43.614;1.576;2023-03-20T00:55:27;1.60;;;0.90;;
67904;SDS011;54709;43.614;1.576;2023-03-20T00:57:57;3.25;;;0.95;;
67904;SDS011;54709;43.614;1.576;2023-03-20T01:00:33;3.95;;;1.15;;
67904;SDS011;54709;43.614;1.576;2023-03-20T01:03:01;2.83;;;1.10;;
67904;SDS011;54709;43.614;1.576;2023-03-20T01:05:30;2.92;;;0.80;;
67904;SDS011;54709;43.614;1.576;2023-03-20T01:07:56;1.02;;;0.88;;
67904;SDS011;54709;43.614;1.576;2023-03-20T01:10:26;2.45;;;0.90;;
67904;SDS011;54709;43.614;1.576;2023-03-20T01:12:52;4.50;;;0.88;;
67904;SDS011;54709;43.614;1.576;2023-03-20T01:15:21;3.95;;;1.00;;
67904;SDS011;54709;43.614;1.576;2023-03-20T01:17:56;3.33;;;1.00;;
67904;SDS011;54709;43.614;1.576;2023-03-20T01:20:23;4.30;;;1.13;;
67904;SDS011;54709;43.614;1.576;2023-03-20T01:22:50;4.25;;;1.00;;
67904;SDS011;54709;43.614;1.576;2023-03-20T01:25:16;2.78;;;1.30;;
67904;SDS011;54709;43.614;1.576;2023-03-20T01:27:45;4.00;;;1.00;;
67904;SDS011;54709;43.614;1.576;2023-03-20T01:32:44;2.88;;;1.15;;
67904;SDS011;54709;43.614;1.576;2023-03-20T01:35:12;2.03;;;0.93;;
67904;SDS011;54709;43.614;1.576;2023-03-20T01:37:39;2.40;;;1.00;;
67904;SDS011;54709;43.614;1.576;2023-03-20T01:40:08;3.33;;;0.88;;
67904;SDS011;54709;43.614;1.576;2023-03-20T01:42:44;2.45;;;0.98;;
67904;SDS011;54709;43.614;1.576;2023-03-20T01:45:14;4.65;;;1.40;;
67904;SDS011;54709;43.614;1.576;2023-03-20T01:47:41;1.80;;;1.00;;
67904;SDS011;54709;43.614;1.576;2023-03-20T01:52:47;1.95;;;1.10;;
67904;SDS011;54709;43.614;1.576;2023-03-20T01:55:16;4.93;;;1.30;;
67904;SDS011;54709;43.614;1.576;2023-03-20T01:57:42;5.97;;;1.05;;
67904;SDS011;54709;43.614;1.576;2023-03-20T02:00:08;4.40;;;1.52;;
67904;SDS011;54709;43.614;1.576;2023-03-20T02:02:35;2.65;;;1.17;;
67904;SDS011;54709;43.614;1.576;2023-03-20T02:05:03;3.70;;;1.00;;
67904;SDS011;54709;43.614;1.576;2023-03-20T02:07:33;2.87;;;1.03;;
67904;SDS011;54709;43.614;1.576;2023-03-20T02:10:00;2.58;;;1.15;;
67904;SDS011;54709;43.614;1.576;2023-03-20T02:12:26;2.85;;;1.00;;
67904;SDS011;54709;43.614;1.576;2023-03-20T02:14:52;3.25;;;1.10;;
67904;SDS011;54709;43.614;1.576;2023-03-20T02:17:17;3.63;;;1.20;;
67904;SDS011;54709;43.614;1.576;2023-03-20T02:34:15;5.72;;;1.35;;
67904;SDS011;54709;43.614;1.576;2023-03-20T02:37:18;3.85;;;1.15;;
67904;SDS011;54709;43.614;1.576;2023-03-20T02:40:25;4.43;;;1.08;;
67904;SDS011;54709;43.614;1.576;2023-03-20T02:43:01;6.47;;;1.02;;
67904;SDS011;54709;43.614;1.576;2023-03-20T03:01:21;3.40;;;1.30;;
67904;SDS011;54709;43.614;1.576;2023-03-20T03:03:53;4.53;;;1.42;;
67904;SDS011;54709;43.614;1.576;2023-03-20T03:06:26;4.05;;;1.35;;
67904;SDS011;54709;43.614;1.576;2023-03-20T03:11:26;2.60;;;1.30;;
67904;SDS011;54709;43.614;1.576;2023-03-20T03:13:52;3.40;;;1.10;;
67904;SDS011;54709;43.614;1.576;2023-03-20T03:16:21;3.17;;;1.10;;
67904;SDS011;54709;43.614;1.576;2023-03-20T03:18:51;2.75;;;1.20;;
67904;SDS011;54709;43.614;1.576;2023-03-20T03:21:23;4.13;;;1.10;;
67904;SDS011;54709;43.614;1.576;2023-03-20T03:23:49;2.65;;;1.10;;
67904;SDS011;54709;43.614;1.576;2023-03-20T03:26:18;3.30;;;1.13;;
67904;SDS011;54709;43.614;1.576;2023-03-20T03:28:47;7.75;;;1.50;;
67904;SDS011;54709;43.614;1.576;2023-03-20T03:31:21;2.80;;;1.20;;
67904;SDS011;54709;43.614;1.576;2023-03-20T03:33:49;1.23;;;0.90;;
67904;SDS011;54709;43.614;1.576;2023-03-20T03:41:30;1.92;;;1.05;;
67904;SDS011;54709;43.614;1.576;2023-03-20T03:49:16;2.80;;;0.90;;
67904;SDS011;54709;43.614;1.576;2023-03-20T03:51:45;6.82;;;1.23;;
67904;SDS011;54709;43.614;1.576;2023-03-20T03:54:17;5.25;;;1.30;;
67904;SDS011;54709;43.614;1.576;2023-03-20T03:59:16;1.85;;;1.00;;
67904;SDS011;54709;43.614;1.576;2023-03-20T04:01:46;3.10;;;1.10;;
67904;SDS011;54709;43.614;1.576;2023-03-20T04:04:14;4.18;;;1.30;;
67904;SDS011;54709;43.614;1.576;2023-03-20T04:06:40;4.43;;;1.25;;
67904;SDS011;54709;43.614;1.576;2023-03-20T04:09:06;6.50;;;1.20;;
67904;SDS011;54709;43.614;1.576;2023-03-20T04:11:32;6.00;;;1.40;;
67904;SDS011;54709;43.614;1.576;2023-03-20T04:13:59;3.78;;;1.27;;
67904;SDS011;54709;43.614;1.576;2023-03-20T04:16:25;2.75;;;1.17;;
67904;SDS011;54709;43.614;1.576;2023-03-20T04:18:51;4.65;;;1.20;;
67904;SDS011;54709;43.614;1.576;2023-03-20T04:21:16;3.13;;;1.10;;
67904;SDS011;54709;43.614;1.576;2023-03-20T04:23:42;3.17;;;1.25;;
67904;SDS011;54709;43.614;1.576;2023-03-20T04:26:08;4.38;;;1.40;;
67904;SDS011;54709;43.614;1.576;2023-03-20T04:28:34;6.10;;;1.45;;
67904;SDS011;54709;43.614;1.576;2023-03-20T04:31:00;3.25;;;1.23;;
67904;SDS011;54709;43.614;1.576;2023-03-20T04:33:26;4.50;;;1.35;;
67904;SDS011;54709;43.614;1.576;2023-03-20T04:35:52;6.70;;;1.50;;
67904;SDS011;54709;43.614;1.576;2023-03-20T04:38:18;3.70;;;1.17;;
67904;SDS011;54709;43.614;1.576;2023-03-20T04:40:45;3.97;;;1.10;;
67904;SDS011;54709;43.614;1.576;2023-03-20T04:43:11;3.50;;;1.40;;
67904;SDS011;54709;43.614;1.576;2023-03-20T04:45:38;6.05;;;1.40;;
67904;SDS011;54709;43.614;1.576;2023-03-20T04:48:03;8.27;;;1.60;;
67904;SDS011;54709;43.614;1.576;2023-03-20T04:50:30;2.65;;;1.35;;
67904;SDS011;54709;43.614;1.576;2023-03-20T04:52:55;6.88;;;1.25;;
67904;SDS011;54709;43.614;1.576;2023-03-20T04:55:21;2.38;;;1.20;;
67904;SDS011;54709;43.614;1.576;2023-03-20T04:57:46;3.22;;;1.35;;
67904;SDS011;54709;43.614;1.576;2023-03-20T05:00:12;3.22;;;1.50;;
67904;SDS011;54709;43.614;1.576;2023-03-20T05:02:38;5.18;;;1.67;;
67904;SDS011;54709;43.614;1.576;2023-03-20T05:05:03;4.03;;;1.20;;
67904;SDS011;54709;43.614;1.576;2023-03-20T05:07:29;3.92;;;1.60;;
67904;SDS011;54709;43.614;1.576;2023-03-20T05:09:55;3.90;;;1.52;;
67904;SDS011;54709;43.614;1.576;2023-03-20T05:12:20;6.60;;;1.67;;
67904;SDS011;54709;43.614;1.576;2023-03-20T05:14:47;4.78;;;1.40;;
67904;SDS011;54709;43.614;1.576;2023-03-20T05:17:13;4.53;;;1.48;;
67904;SDS011;54709;43.614;1.576;2023-03-20T05:19:38;5.15;;;1.30;;
67904;SDS011;54709;43.614;1.576;2023-03-20T05:22:04;6.53;;;1.25;;
67904;SDS011;54709;43.614;1.576;2023-03-20T05:24:30;4.15;;;1.10;;
67904;SDS011;54709;43.614;1.576;2023-03-20T05:26:55;6.00;;;1.70;;
67904;SDS011;54709;43.614;1.576;2023-03-20T05:29:21;2.50;;;1.33;;
67904;SDS011;54709;43.614;1.576;2023-03-20T05:31:46;1.80;;;1.23;;
67904;SDS011;54709;43.614;1.576;2023-03-20T05:34:12;3.97;;;1.40;;
67904;SDS011;54709;43.614;1.576;2023-03-20T05:36:37;4.00;;;1.50;;
67904;SDS011;54709;43.614;1.576;2023-03-20T05:39:03;3.72;;;1.58;;
67904;SDS011;54709;43.614;1.576;2023-03-20T05:41:28;3.58;;;1.70;;
67904;SDS011;54709;43.614;1.576;2023-03-20T05:43:54;6.55;;;1.80;;
67904;SDS011;54709;43.614;1.576;2023-03-20T05:46:19;3.03;;;1.73;;
67904;SDS011;54709;43.614;1.576;2023-03-20T05:48:45;4.75;;;1.70;;
67904;SDS011;54709;43.614;1.576;2023-03-20T05:51:10;5.18;;;1.63;;
67904;SDS011;54709;43.614;1.576;2023-03-20T05:53:36;5.75;;;1.92;;
67904;SDS011;54709;43.614;1.576;2023-03-20T05:56:01;4.43;;;1.80;;
67904;SDS011;54709;43.614;1.576;2023-03-20T05:58:27;6.78;;;1.73;;
67904;SDS011;54709;43.614;1.576;2023-03-20T06:00:52;4.25;;;1.60;;
67904;SDS011;54709;43.614;1.576;2023-03-20T06:03:18;4.47;;;1.65;;
67904;SDS011;54709;43.614;1.576;2023-03-20T06:05:43;3.80;;;1.70;;
67904;SDS011;54709;43.614;1.576;2023-03-20T06:08:09;6.65;;;1.70;;
67904;SDS011;54709;43.614;1.576;2023-03-20T06:10:34;6.20;;;1.70;;
67904;SDS011;54709;43.614;1.576;2023-03-20T06:13:00;3.97;;;1.65;;
67904;SDS011;54709;43.614;1.576;2023-03-20T06:15:26;4.10;;;1.77;;
67904;SDS011;54709;43.614;1.576;2023-03-20T06:17:52;2.95;;;1.70;;
67904;SDS011;54709;43.614;1.576;2023-03-20T06:20:18;4.45;;;1.70;;
67904;SDS011;54709;43.614;1.576;2023-03-20T06:22:44;5.50;;;1.75;;
67904;SDS011;54709;43.614;1.576;2023-03-20T06:25:10;8.32;;;2.00;;
67904;SDS011;54709;43.614;1.576;2023-03-20T06:27:36;4.90;;;1.80;;
67904;SDS011;54709;43.614;1.576;2023-03-20T06:30:01;6.63;;;2.05;;
67904;SDS011;54709;43.614;1.576;2023-03-20T06:32:26;3.03;;;1.70;;
67904;SDS011;54709;43.614;1.576;2023-03-20T06:34:52;3.22;;;1.80;;
67904;SDS011;54709;43.614;1.576;2023-03-20T06:37:18;5.05;;;1.65;;
67904;SDS011;54709;43.614;1.576;2023-03-20T06:39:44;6.68;;;1.70;;
67904;SDS011;54709;43.614;1.576;2023-03-20T06:42:10;3.30;;;1.58;;
67904;SDS011;54709;43.614;1.576;2023-03-20T06:44:37;4.78;;;1.55;;
67904;SDS011;54709;43.614;1.576;2023-03-20T06:47:02;4.82;;;1.70;;
67904;SDS011;54709;43.614;1.576;2023-03-20T06:49:28;5.82;;;1.50;;
67904;SDS011;54709;43.614;1.576;2023-03-20T06:51:53;3.47;;;1.40;;
67904;SDS011;54709;43.614;1.576;2023-03-20T06:54:18;3.20;;;1.52;;
67904;SDS011;54709;43.614;1.576;2023-03-20T06:56:44;4.05;;;1.55;;
67904;SDS011;54709;43.614;1.576;2023-03-20T06:59:10;5.65;;;1.55;;
67904;SDS011;54709;43.614;1.576;2023-03-20T07:01:36;7.63;;;1.65;;
67904;SDS011;54709;43.614;1.576;2023-03-20T07:04:01;2.17;;;1.30;;
67904;SDS011;54709;43.614;1.576;2023-03-20T07:06:27;5.72;;;1.30;;
67904;SDS011;54709;43.614;1.576;2023-03-20T07:08:52;4.13;;;1.25;;
67904;SDS011;54709;43.614;1.576;2023-03-20T07:11:18;4.63;;;1.50;;
67904;SDS011;54709;43.614;1.576;2023-03-20T07:13:43;5.28;;;1.42;;
67904;SDS011;54709;43.614;1.576;2023-03-20T07:16:09;4.85;;;1.27;;
67904;SDS011;54709;43.614;1.576;2023-03-20T07:18:34;4.53;;;1.30;;
67904;SDS011;54709;43.614;1.576;2023-03-20T07:21:01;3.03;;;1.35;;
67904;SDS011;54709;43.614;1.576;2023-03-20T07:23:28;3.55;;;1.20;;
67904;SDS011;54709;43.614;1.576;2023-03-20T07:25:54;3.70;;;1.17;;
67904;SDS011;54709;43.614;1.576;2023-03-20T07:28:20;2.75;;;1.30;;
67904;SDS011;54709;43.614;1.576;2023-03-20T07:30:46;4.10;;;1.00;;
67904;SDS011;54709;43.614;1.576;2023-03-20T07:33:11;3.00;;;1.20;;
67904;SDS011;54709;43.614;1.576;2023-03-20T07:35:37;2.58;;;1.20;;
67904;SDS011;54709;43.614;1.576;2023-03-20T07:38:03;3.40;;;1.30;;
67904;SDS011;54709;43.614;1.576;2023-03-20T07:40:30;2.47;;;1.40;;
67904;SDS011;54709;43.614;1.576;2023-03-20T07:42:56;6.22;;;1.40;;
67904;SDS011;54709;43.614;1.576;2023-03-20T07:45:22;3.13;;;1.17;;
67904;SDS011;54709;43.614;1.576;2023-03-20T07:47:47;3.03;;;1.30;;
67904;SDS011;54709;43.614;1.576;2023-03-20T07:50:13;7.38;;;1.10;;
67904;SDS011;54709;43.614;1.576;2023-03-20T07:52:39;4.43;;;1.00;;
67904;SDS011;54709;43.614;1.576;2023-03-20T07:55:05;3.80;;;1.15;;
67904;SDS011;54709;43.614;1.576;2023-03-20T07:57:31;3.33;;;1.38;;
67904;SDS011;54709;43.614;1.576;2023-03-20T07:59:57;1.48;;;0.90;;
67904;SDS011;54709;43.614;1.576;2023-03-20T08:02:22;2.17;;;0.93;;
67904;SDS011;54709;43.614;1.576;2023-03-20T08:04:47;1.70;;;0.85;;
67904;SDS011;54709;43.614;1.576;2023-03-20T08:07:13;2.90;;;0.82;;
67904;SDS011;54709;43.614;1.576;2023-03-20T08:09:38;3.72;;;0.80;;
67904;SDS011;54709;43.614;1.576;2023-03-20T08:12:04;2.22;;;0.70;;
67904;SDS011;54709;43.614;1.576;2023-03-20T08:14:30;3.20;;;0.80;;
67904;SDS011;54709;43.614;1.576;2023-03-20T08:16:56;1.88;;;0.80;;
67904;SDS011;54709;43.614;1.576;2023-03-20T08:19:21;1.83;;;0.93;;
67904;SDS011;54709;43.614;1.576;2023-03-20T08:21:47;0.88;;;0.70;;
67904;SDS011;54709;43.614;1.576;2023-03-20T08:24:14;4.30;;;0.80;;
67904;SDS011;54709;43.614;1.576;2023-03-20T08:26:39;0.60;;;0.50;;
67904;SDS011;54709;43.614;1.576;2023-03-20T08:29:05;2.42;;;0.60;;
67904;SDS011;54709;43.614;1.576;2023-03-20T08:31:31;1.27;;;0.77;;
67904;SDS011;54709;43.614;1.576;2023-03-20T08:33:56;3.80;;;1.00;;
67904;SDS011;54709;43.614;1.576;2023-03-20T08:36:22;0.75;;;0.47;;
67904;SDS011;54709;43.614;1.576;2023-03-20T08:38:48;1.85;;;0.52;;
67904;SDS011;54709;43.614;1.576;2023-03-20T08:41:14;2.50;;;0.70;;
67904;SDS011;54709;43.614;1.576;2023-03-20T08:43:40;0.85;;;0.47;;
67904;SDS011;54709;43.614;1.576;2023-03-20T08:46:06;2.42;;;0.50;;
67904;SDS011;54709;43.614;1.576;2023-03-20T08:48:31;0.57;;;0.40;;
67904;SDS011;54709;43.614;1.576;2023-03-20T08:50:57;2.08;;;0.50;;
67904;SDS011;54709;43.614;1.576;2023-03-20T08:53:22;1.70;;;0.77;;
67904;SDS011;54709;43.614;1.576;2023-03-20T08:55:49;2.08;;;0.50;;
67904;SDS011;54709;43.614;1.576;2023-03-20T08:58:16;1.90;;;0.52;;
67904;SDS011;54709;43.614;1.576;2023-03-20T09:00:42;0.93;;;0.70;;
67904;SDS011;54709;43.614;1.576;2023-03-20T09:03:14;1.70;;;0.60;;
67904;SDS011;54709;43.614;1.576;2023-03-20T09:05:45;2.42;;;0.70;;
67904;SDS011;54709;43.614;1.576;2023-03-20T09:08:12;3.45;;;0.50;;
67904;SDS011;54709;43.614;1.576;2023-03-20T09:10:37;2.70;;;0.60;;
67904;SDS011;54709;43.614;1.576;2023-03-20T09:13:04;0.88;;;0.70;;
67904;SDS011;54709;43.614;1.576;2023-03-20T09:15:30;2.70;;;0.60;;
67904;SDS011;54709;43.614;1.576;2023-03-20T09:17:56;1.15;;;0.50;;
67904;SDS011;54709;43.614;1.576;2023-03-20T09:20:21;3.47;;;0.70;;
67904;SDS011;54709;43.614;1.576;2023-03-20T09:22:46;1.75;;;0.68;;
67904;SDS011;54709;43.614;1.576;2023-03-20T09:25:12;1.05;;;0.65;;
67904;SDS011;54709;43.614;1.576;2023-03-20T09:27:38;1.83;;;0.70;;
67904;SDS011;54709;43.614;1.576;2023-03-20T09:30:05;1.85;;;0.57;;
67904;SDS011;54709;43.614;1.576;2023-03-20T09:32:31;2.13;;;0.68;;
67904;SDS011;54709;43.614;1.576;2023-03-20T09:34:58;2.30;;;0.90;;
67904;SDS011;54709;43.614;1.576;2023-03-20T09:37:24;0.73;;;0.50;;
67904;SDS011;54709;43.614;1.576;2023-03-20T09:39:49;1.35;;;0.70;;
67904;SDS011;54709;43.614;1.576;2023-03-20T09:42:49;2.08;;;0.60;;
67904;SDS011;54709;43.614;1.576;2023-03-20T09:45:10;2.92;;;0.60;;
67904;SDS011;54709;43.614;1.576;2023-03-20T09:47:58;2.45;;;0.90;;
67904;SDS011;54709;43.614;1.576;2023-03-20T09:55:36;1.13;;;0.63;;
67904;SDS011;54709;43.614;1.576;2023-03-20T09:58:04;2.33;;;0.50;;
67904;SDS011;54709;43.614;1.576;2023-03-20T10:00:34;2.13;;;0.60;;
67904;SDS011;54709;43.614;1.576;2023-03-20T10:03:02;1.50;;;0.70;;
67904;SDS011;54709;43.614;1.576;2023-03-20T10:05:38;1.80;;;0.60;;
67904;SDS011;54709;43.614;1.576;2023-03-20T10:08:10;1.13;;;0.60;;
67904;SDS011;54709;43.614;1.576;2023-03-20T10:22:16;2.78;;;0.65;;
67904;SDS011;54709;43.614;1.576;2023-03-20T10:33:07;1.67;;;0.70;;
67904;SDS011;54709;43.614;1.576;2023-03-20T10:41:55;1.90;;;0.73;;
67904;SDS011;54709;43.614;1.576;2023-03-20T10:44:42;1.77;;;0.60;;
67904;SDS011;54709;43.614;1.576;2023-03-20T10:47:12;2.03;;;0.60;;
67904;SDS011;54709;43.614;1.576;2023-03-20T10:49:42;1.48;;;0.70;;
67904;SDS011;54709;43.614;1.576;2023-03-20T10:52:14;1.88;;;0.75;;
67904;SDS011;54709;43.614;1.576;2023-03-20T10:54:49;2.90;;;0.70;;
67904;SDS011;54709;43.614;1.576;2023-03-20T10:57:24;1.75;;;0.70;;
67904;SDS011;54709;43.614;1.576;2023-03-20T10:59:53;1.13;;;0.77;;
67904;SDS011;54709;43.614;1.576;2023-03-20T11:02:21;5.18;;;0.85;;
67904;SDS011;54709;43.614;1.576;2023-03-20T11:04:48;3.22;;;0.70;;
67904;SDS011;54709;43.614;1.576;2023-03-20T11:07:33;1.45;;;0.63;;
67904;SDS011;54709;43.614;1.576;2023-03-20T11:12:30;1.77;;;0.70;;
67904;SDS011;54709;43.614;1.576;2023-03-20T11:14:58;1.88;;;0.63;;
67904;SDS011;54709;43.614;1.576;2023-03-20T11:17:27;2.35;;;0.80;;
67904;SDS011;54709;43.614;1.576;2023-03-20T11:19:53;4.32;;;0.90;;
67904;SDS011;54709;43.614;1.576;2023-03-20T11:22:28;2.70;;;0.82;;
67904;SDS011;54709;43.614;1.576;2023-03-20T11:24:57;1.85;;;0.73;;
67904;SDS011;54709;43.614;1.576;2023-03-20T11:29:59;2.47;;;0.80;;
67904;SDS011;54709;43.614;1.576;2023-03-20T11:34:52;1.27;;;0.70;;
67904;SDS011;54709;43.614;1.576;2023-03-20T11:37:32;1.98;;;0.80;;
67904;SDS011;54709;43.614;1.576;2023-03-20T11:39:59;3.10;;;0.65;;
67904;SDS011;54709;43.614;1.576;2023-03-20T11:42:26;2.05;;;0.70;;
67904;SDS011;54709;43.614;1.576;2023-03-20T11:45:01;1.38;;;0.70;;
67904;SDS011;54709;43.614;1.576;2023-03-20T11:47:30;3.95;;;0.75;;
67904;SDS011;54709;43.614;1.576;2023-03-20T11:49:58;1.85;;;0.80;;
67904;SDS011;54709;43.614;1.576;2023-03-20T11:52:26;3.20;;;0.73;;
67904;SDS011;54709;43.614;1.576;2023-03-20T11:54:56;2.13;;;0.73;;
67904;SDS011;54709;43.614;1.576;2023-03-20T11:57:27;1.90;;;0.70;;
67904;SDS011;54709;43.614;1.576;2023-03-20T11:59:55;3.60;;;0.85;;
67904;SDS011;54709;43.614;1.576;2023-03-20T12:02:21;1.38;;;0.85;;
67904;SDS011;54709;43.614;1.576;2023-03-20T12:04:47;1.65;;;0.70;;
67904;SDS011;54709;43.614;1.576;2023-03-20T12:28:49;2.78;;;0.80;;
67904;SDS011;54709;43.614;1.576;2023-03-20T12:36:38;1.70;;;0.90;;
67904;SDS011;54709;43.614;1.576;2023-03-20T12:39:13;1.90;;;0.85;;
67904;SDS011;54709;43.614;1.576;2023-03-20T12:44:47;2.08;;;0.88;;
67904;SDS011;54709;43.614;1.576;2023-03-20T12:53:00;1.57;;;0.70;;
67904;SDS011;54709;43.614;1.576;2023-03-20T13:01:09;3.67;;;1.00;;
67904;SDS011;54709;43.614;1.576;2023-03-20T13:12:28;3.05;;;1.13;;
67904;SDS011;54709;43.614;1.576;2023-03-20T13:15:26;1.45;;;0.68;;
67904;SDS011;54709;43.614;1.576;2023-03-20T13:18:44;1.70;;;0.77;;
67904;SDS011;54709;43.614;1.576;2023-03-20T13:20:51;0.98;;;0.70;;
67904;SDS011;54709;43.614;1.576;2023-03-20T13:31:47;3.20;;;0.77;;
67904;SDS011;54709;43.614;1.576;2023-03-20T13:38:36;1.65;;;0.80;;
67904;SDS011;54709;43.614;1.576;2023-03-20T13:40:41;2.45;;;0.90;;
67904;SDS011;54709;43.614;1.576;2023-03-20T13:45:55;4.45;;;1.00;;
67904;SDS011;54709;43.614;1.576;2023-03-20T13:48:40;1.55;;;0.80;;
67904;SDS011;54709;43.614;1.576;2023-03-20T14:04:02;2.05;;;0.77;;
67904;SDS011;54709;43.614;1.576;2023-03-20T14:08:54;1.67;;;0.93;;
67904;SDS011;54709;43.614;1.576;2023-03-20T14:13:48;2.15;;;0.88;;
67904;SDS011;54709;43.614;1.576;2023-03-20T14:16:16;2.58;;;0.95;;
67904;SDS011;54709;43.614;1.576;2023-03-20T14:18:44;4.38;;;0.93;;
67904;SDS011;54709;43.614;1.576;2023-03-20T14:21:13;3.38;;;0.98;;
67904;SDS011;54709;43.614;1.576;2023-03-20T14:23:49;4.32;;;1.00;;
67904;SDS011;54709;43.614;1.576;2023-03-20T14:26:20;1.70;;;0.82;;
67904;SDS011;54709;43.614;1.576;2023-03-20T14:28:52;2.30;;;1.15;;
67904;SDS011;54709;43.614;1.576;2023-03-20T14:31:22;2.03;;;0.88;;
67904;SDS011;54709;43.614;1.576;2023-03-20T14:33:56;2.25;;;1.00;;
67904;SDS011;54709;43.614;1.576;2023-03-20T14:55:49;3.28;;;0.98;;
67904;SDS011;54709;43.614;1.576;2023-03-20T15:01:02;1.50;;;0.73;;
67904;SDS011;54709;43.614;1.576;2023-03-20T15:03:29;4.13;;;0.80;;
67904;SDS011;54709;43.614;1.576;2023-03-20T15:05:55;1.60;;;0.70;;
67904;SDS011;54709;43.614;1.576;2023-03-20T15:08:23;3.95;;;0.80;;
67904;SDS011;54709;43.614;1.576;2023-03-20T15:10:55;2.85;;;1.00;;
67904;SDS011;54709;43.614;1.576;2023-03-20T15:13:22;1.88;;;1.13;;
67904;SDS011;54709;43.614;1.576;2023-03-20T15:15:54;2.70;;;0.90;;
67904;SDS011;54709;43.614;1.576;2023-03-20T15:18:21;2.70;;;0.88;;
67904;SDS011;54709;43.614;1.576;2023-03-20T15:20:48;3.30;;;1.10;;
67904;SDS011;54709;43.614;1.576;2023-03-20T15:23:13;2.00;;;0.90;;
67904;SDS011;54709;43.614;1.576;2023-03-20T15:25:40;5.20;;;1.10;;
67904;SDS011;54709;43.614;1.576;2023-03-20T15:28:10;2.75;;;1.08;;
67904;SDS011;54709;43.614;1.576;2023-03-20T15:30:38;2.60;;;1.13;;
67904;SDS011;54709;43.614;1.576;2023-03-20T15:33:04;3.25;;;1.35;;
67904;SDS011;54709;43.614;1.576;2023-03-20T15:35:31;2.70;;;1.05;;
67904;SDS011;54709;43.614;1.576;2023-03-20T15:37:57;3.30;;;1.10;;
67904;SDS011;54709;43.614;1.576;2023-03-20T15:40:31;2.22;;;0.90;;
67904;SDS011;54709;43.614;1.576;2023-03-20T15:42:58;2.80;;;0.90;;
67904;SDS011;54709;43.614;1.576;2023-03-20T15:45:32;2.78;;;0.93;;
67904;SDS011;54709;43.614;1.576;2023-03-20T15:48:08;2.55;;;1.00;;
67904;SDS011;54709;43.614;1.576;2023-03-20T15:50:37;4.45;;;1.27;;
67904;SDS011;54709;43.614;1.576;2023-03-20T15:53:05;3.10;;;1.02;;
67904;SDS011;54709;43.614;1.576;2023-03-20T15:55:35;2.35;;;1.00;;
67904;SDS011;54709;43.614;1.576;2023-03-20T15:58:01;3.40;;;1.08;;
67904;SDS011;54709;43.614;1.576;2023-03-20T16:02:58;1.80;;;1.00;;
67904;SDS011;54709;43.614;1.576;2023-03-20T16:05:28;2.08;;;1.00;;
67904;SDS011;54709;43.614;1.576;2023-03-20T16:07:55;1.90;;;0.82;;
67904;SDS011;54709;43.614;1.576;2023-03-20T16:12:52;3.42;;;0.93;;
67904;SDS011;54709;43.614;1.576;2023-03-20T16:15:21;3.83;;;0.90;;
67904;SDS011;54709;43.614;1.576;2023-03-20T16:17:50;1.60;;;1.10;;
67904;SDS011;54709;43.614;1.576;2023-03-20T16:20:17;2.10;;;0.85;;
67904;SDS011;54709;43.614;1.576;2023-03-20T16:22:42;1.83;;;1.00;;
67904;SDS011;54709;43.614;1.576;2023-03-20T16:25:11;1.63;;;0.90;;
67904;SDS011;54709;43.614;1.576;2023-03-20T16:27:39;3.17;;;1.00;;
67904;SDS011;54709;43.614;1.576;2023-03-20T16:30:07;2.88;;;1.00;;
67904;SDS011;54709;43.614;1.576;2023-03-20T16:32:38;2.70;;;0.88;;
67904;SDS011;54709;43.614;1.576;2023-03-20T16:35:07;2.92;;;0.93;;
67904;SDS011;54709;43.614;1.576;2023-03-20T16:37:42;2.75;;;0.90;;
67904;SDS011;54709;43.614;1.576;2023-03-20T16:42:38;2.33;;;0.90;;
67904;SDS011;54709;43.614;1.576;2023-03-20T16:45:04;2.95;;;0.98;;
67904;SDS011;54709;43.614;1.576;2023-03-20T16:47:34;2.28;;;0.80;;
67904;SDS011;54709;43.614;1.576;2023-03-20T16:50:09;3.17;;;1.00;;
67904;SDS011;54709;43.614;1.576;2023-03-20T16:52:38;1.40;;;0.70;;
67904;SDS011;54709;43.614;1.576;2023-03-20T16:55:05;1.58;;;0.70;;
67904;SDS011;54709;43.614;1.576;2023-03-20T16:57:37;3.20;;;1.00;;
67904;SDS011;54709;43.614;1.576;2023-03-20T17:00:04;2.28;;;0.90;;
67904;SDS011;54709;43.614;1.576;2023-03-20T17:02:36;1.83;;;0.98;;
67904;SDS011;54709;43.614;1.576;2023-03-20T17:05:06;1.60;;;0.80;;
67904;SDS011;54709;43.614;1.576;2023-03-20T17:07:36;3.92;;;1.08;;
67904;SDS011;54709;43.614;1.576;2023-03-20T17:12:43;1.73;;;0.90;;
67904;SDS011;54709;43.614;1.576;2023-03-20T17:15:17;2.33;;;0.90;;
67904;SDS011;54709;43.614;1.576;2023-03-20T17:17:45;1.90;;;0.85;;
67904;SDS011;54709;43.614;1.576;2023-03-20T17:20:16;2.83;;;0.80;;
67904;SDS011;54709;43.614;1.576;2023-03-20T17:22:49;3.85;;;0.80;;
67904;SDS011;54709;43.614;1.576;2023-03-20T17:25:15;2.95;;;0.90;;
67904;SDS011;54709;43.614;1.576;2023-03-20T17:27:40;3.10;;;0.70;;
67904;SDS011;54709;43.614;1.576;2023-03-20T17:30:12;1.50;;;0.73;;
67904;SDS011;54709;43.614;1.576;2023-03-20T17:32:45;2.25;;;0.90;;
67904;SDS011;54709;43.614;1.576;2023-03-20T17:35:11;4.18;;;0.90;;
67904;SDS011;54709;43.614;1.576;2023-03-20T17:37:36;6.20;;;1.10;;
67904;SDS011;54709;43.614;1.576;2023-03-20T17:40:02;3.50;;;0.93;;
67904;SDS011;54709;43.614;1.576;2023-03-20T17:42:28;1.58;;;0.70;;
67904;SDS011;54709;43.614;1.576;2023-03-20T17:44:59;3.90;;;0.90;;
67904;SDS011;54709;43.614;1.576;2023-03-20T17:47:27;4.13;;;1.02;;
67904;SDS011;54709;43.614;1.576;2023-03-20T17:49:53;2.83;;;0.82;;
67904;SDS011;54709;43.614;1.576;2023-03-20T17:52:21;2.88;;;0.95;;
67904;SDS011;54709;43.614;1.576;2023-03-20T17:54:48;1.42;;;1.02;;
67904;SDS011;54709;43.614;1.576;2023-03-20T17:57:18;2.88;;;0.98;;
67904;SDS011;54709;43.614;1.576;2023-03-20T18:02:11;3.47;;;0.90;;
67904;SDS011;54709;43.614;1.576;2023-03-20T18:04:36;2.22;;;0.95;;
67904;SDS011;54709;43.614;1.576;2023-03-20T18:07:02;1.20;;;0.90;;
67904;SDS011;54709;43.614;1.576;2023-03-20T18:09:28;5.50;;;1.00;;
67904;SDS011;54709;43.614;1.576;2023-03-20T18:11:54;4.00;;;1.05;;
67904;SDS011;54709;43.614;1.576;2023-03-20T18:14:20;2.05;;;0.88;;
67904;SDS011;54709;43.614;1.576;2023-03-20T18:16:46;5.78;;;1.20;;
67904;SDS011;54709;43.614;1.576;2023-03-20T18:19:15;2.75;;;0.80;;
67904;SDS011;54709;43.614;1.576;2023-03-20T18:21:45;2.58;;;0.95;;